createdAt,value
2022-07-26T00:00:36.707Z,99.99
2022-07-26T00:01:36.800Z,99.99
2022-07-26T00:02:36.875Z,99.99
2022-07-26T00:03:36.609Z,99.99
2022-07-26T00:04:36.701Z,99.99
2022-07-26T00:05:36.578Z,99.99
2022-07-26T00:06:36.559Z,99.99
2022-07-26T00:07:36.866Z,99.99
2022-07-26T00:08:36.723Z,99.99
2022-07-26T00:09:36.543Z,99.99
2022-07-26T00:10:36.504Z,99.99
2022-07-26T00:11:36.561Z,99.99
2022-07-26T00:12:36.702Z,99.99
2022-07-26T00:13:36.604Z,99.99
2022-07-26T00:14:36.693Z,99.99
2022-07-26T00:15:36.554Z,99.99
2022-07-26T00:16:36.605Z,99.99
2022-07-26T00:17:36.437Z,99.99
2022-07-26T00:18:36.407Z,99.99
2022-07-26T00:19:36.485Z,99.99
2022-07-26T00:20:36.388Z,99.99
2022-07-26T00:21:36.548Z,99.99
2022-07-26T00:22:36.390Z,99.99
2022-07-26T00:23:36.348Z,99.99
2022-07-26T00:24:36.378Z,99.99
2022-07-26T00:25:36.887Z,99.99
2022-07-26T00:26:36.402Z,99.99
2022-07-26T00:27:36.562Z,99.99
2022-07-26T00:28:36.275Z,99.99
2022-07-26T00:29:36.543Z,99.99
2022-07-26T00:30:36.403Z,99.99
2022-07-26T00:31:36.372Z,99.99
2022-07-26T00:32:36.374Z,99.99
2022-07-26T00:33:36.212Z,99.99
2022-07-26T00:34:36.409Z,99.99
2022-07-26T00:35:36.228Z,99.99
2022-07-26T00:36:36.214Z,99.99
2022-07-26T00:37:36.300Z,99.99
2022-07-26T00:38:36.133Z,99.99
2022-07-26T00:39:36.228Z,99.99
2022-07-26T00:40:36.378Z,99.99
2022-07-26T00:41:36.208Z,99.99
2022-07-26T00:42:36.106Z,99.99
2022-07-26T00:43:36.139Z,99.99
2022-07-26T00:44:36.064Z,99.99
2022-07-26T00:45:36.242Z,99.99
2022-07-26T00:46:36.112Z,99.99
2022-07-26T00:47:36.232Z,99.99
2022-07-26T00:48:36.056Z,99.99
2022-07-26T00:49:36.232Z,99.99
2022-07-26T00:50:36.076Z,99.99
2022-07-26T00:51:35.963Z,99.99
2022-07-26T00:52:36.068Z,99.99
2022-07-26T00:53:36.239Z,99.99
2022-07-26T00:54:35.939Z,99.99
2022-07-26T00:55:35.977Z,99.99
2022-07-26T00:56:35.905Z,99.99
2022-07-26T00:57:35.927Z,99.99
2022-07-26T00:58:35.892Z,99.99
2022-07-26T00:59:35.876Z,99.99
2022-07-26T01:00:35.852Z,99.99
2022-07-26T01:01:36.125Z,99.99
2022-07-26T01:02:36.214Z,99.99
2022-07-26T01:03:36.643Z,99.99
2022-07-26T01:04:35.791Z,99.99
2022-07-26T01:05:35.915Z,99.99
2022-07-26T01:06:35.797Z,99.99
2022-07-26T01:07:36.005Z,99.99
2022-07-26T01:08:35.744Z,99.99
2022-07-26T01:09:35.918Z,99.99
2022-07-26T01:10:35.761Z,99.99
2022-07-26T01:11:35.915Z,99.99
2022-07-26T01:12:35.757Z,99.99
2022-07-26T01:13:35.859Z,99.99
2022-07-26T01:14:35.751Z,99.99
2022-07-26T01:15:35.657Z,99.99
2022-07-26T01:16:35.850Z,99.99
2022-07-26T01:17:38.244Z,99.99
2022-07-26T01:18:35.751Z,99.99
2022-07-26T01:19:35.680Z,99.99
2022-07-26T01:20:35.764Z,99.99
2022-07-26T01:21:35.582Z,99.99
2022-07-26T01:22:35.544Z,99.99
2022-07-26T01:23:35.579Z,99.99
2022-07-26T01:24:35.786Z,99.99
2022-07-26T01:25:43.193Z,99.99
2022-07-26T01:26:35.751Z,99.99
2022-07-26T01:27:35.587Z,99.99
2022-07-26T01:28:35.756Z,99.99
2022-07-26T01:29:36.599Z,99.99
2022-07-26T01:30:35.456Z,99.99
2022-07-26T01:31:35.731Z,99.99
2022-07-26T01:32:35.415Z,99.99
2022-07-26T01:33:35.586Z,99.99
2022-07-26T01:34:35.430Z,99.99
2022-07-26T01:35:35.591Z,99.99
2022-07-26T01:36:35.431Z,99.99
2022-07-26T01:37:35.661Z,99.99
2022-07-26T01:38:35.432Z,99.99
2022-07-26T01:39:35.601Z,99.99
2022-07-26T01:40:35.430Z,99.99
2022-07-26T01:41:37.961Z,99.99
2022-07-26T01:42:35.412Z,99.99
2022-07-26T01:43:35.335Z,99.99
2022-07-26T01:44:35.427Z,99.99
2022-07-26T01:45:35.321Z,99.99
2022-07-26T01:46:35.237Z,99.99
2022-07-26T01:47:35.240Z,99.99
2022-07-26T01:48:35.553Z,99.99
2022-07-26T01:49:35.351Z,99.99
2022-07-26T01:50:35.435Z,99.99
2022-07-26T01:51:35.239Z,99.99
2022-07-26T01:52:35.441Z,99.99
2022-07-26T01:53:35.141Z,99.99
2022-07-26T01:54:35.430Z,99.99
2022-07-26T01:55:35.293Z,99.99
2022-07-26T01:56:35.120Z,99.99
2022-07-26T01:57:35.283Z,99.99
2022-07-26T01:58:35.100Z,99.99
2022-07-26T01:59:35.062Z,99.99
2022-07-26T02:00:35.039Z,99.99
2022-07-26T02:01:39.351Z,99.99
2022-07-26T02:02:35.317Z,99.99
2022-07-26T02:03:35.017Z,99.99
2022-07-26T02:04:35.010Z,99.99
2022-07-26T02:05:34.986Z,99.99
2022-07-26T02:06:34.976Z,99.99
2022-07-26T02:07:35.266Z,99.99
2022-07-26T02:08:34.936Z,99.99
2022-07-26T02:09:38.137Z,99.99
2022-07-26T02:10:34.932Z,99.99
2022-07-26T02:11:34.970Z,99.99
2022-07-26T02:12:34.890Z,99.99
2022-07-26T02:13:35.015Z,99.99
2022-07-26T02:14:34.863Z,99.99
2022-07-26T02:15:34.911Z,99.99
2022-07-26T02:16:34.861Z,99.99
2022-07-26T02:17:34.964Z,99.99
2022-07-26T02:18:34.811Z,99.99
2022-07-26T02:19:35.003Z,99.99
2022-07-26T02:20:34.796Z,99.99
2022-07-26T02:21:34.798Z,99.99
2022-07-26T02:22:34.809Z,99.99
2022-07-26T02:23:34.938Z,99.99
2022-07-26T02:24:34.879Z,99.99
2022-07-26T02:25:34.726Z,99.99
2022-07-26T02:26:34.806Z,99.99
2022-07-26T02:27:34.937Z,99.99
2022-07-26T02:28:34.778Z,99.99
2022-07-26T02:29:34.950Z,99.99
2022-07-26T02:30:34.861Z,99.99
2022-07-26T02:31:34.733Z,99.99
2022-07-26T02:32:34.781Z,99.99
2022-07-26T02:33:34.632Z,99.99
2022-07-26T02:34:34.791Z,99.99
2022-07-26T02:35:34.622Z,99.99
2022-07-26T02:36:35.122Z,99.99
2022-07-26T02:37:40.796Z,99.99
2022-07-26T02:38:34.577Z,99.99
2022-07-26T02:39:34.626Z,99.99
2022-07-26T02:40:34.546Z,99.99
2022-07-26T02:41:34.626Z,99.99
2022-07-26T02:42:34.575Z,99.99
2022-07-26T02:43:34.627Z,99.99
2022-07-26T02:44:34.487Z,99.99
2022-07-26T02:45:34.609Z,99.99
2022-07-26T02:46:34.521Z,99.99
2022-07-26T02:47:34.439Z,99.99
2022-07-26T02:48:34.576Z,99.99
2022-07-26T02:49:34.441Z,99.99
2022-07-26T02:50:34.454Z,99.99
2022-07-26T02:51:34.621Z,99.99
2022-07-26T02:52:34.474Z,99.99
2022-07-26T02:53:34.612Z,99.99
2022-07-26T02:54:34.512Z,99.99
2022-07-26T02:55:34.348Z,99.99
2022-07-26T02:56:34.502Z,99.99
2022-07-26T02:57:45.380Z,99.99
2022-07-26T02:58:34.446Z,99.99
2022-07-26T02:59:34.305Z,99.99
2022-07-26T03:00:34.357Z,99.99
2022-07-26T03:01:34.398Z,99.99
2022-07-26T03:02:34.505Z,99.99
2022-07-26T03:03:34.290Z,99.99
2022-07-26T03:04:34.216Z,99.99
2022-07-26T03:05:34.305Z,99.99
2022-07-26T03:06:34.211Z,99.99
2022-07-26T03:07:34.252Z,99.99
2022-07-26T03:08:34.192Z,99.99
2022-07-26T03:09:34.303Z,99.99
2022-07-26T03:10:34.141Z,99.99
2022-07-26T03:11:34.145Z,99.99
2022-07-26T03:12:34.201Z,99.99
2022-07-26T03:13:34.111Z,99.99
2022-07-26T03:14:34.133Z,99.99
2022-07-26T03:15:34.156Z,99.99
2022-07-26T03:16:34.138Z,99.99
2022-07-26T03:17:34.077Z,99.99
2022-07-26T03:18:34.147Z,99.99
2022-07-26T03:19:34.016Z,99.99
2022-07-26T03:20:34.147Z,99.99
2022-07-26T03:21:34.308Z,99.99
2022-07-26T03:22:33.989Z,99.99
2022-07-26T03:23:33.990Z,99.99
2022-07-26T03:24:34.196Z,99.99
2022-07-26T03:25:33.991Z,99.99
2022-07-26T03:26:34.152Z,99.99
2022-07-26T03:27:33.994Z,99.99
2022-07-26T03:28:33.928Z,99.99
2022-07-26T03:29:34.041Z,99.99
2022-07-26T03:30:34.152Z,99.99
2022-07-26T03:31:34.070Z,99.99
2022-07-26T03:32:33.860Z,99.99
2022-07-26T03:33:33.960Z,99.99
2022-07-26T03:34:34.153Z,99.99
2022-07-26T03:35:36.603Z,99.99
2022-07-26T03:36:33.819Z,99.99
2022-07-26T03:37:45.533Z,99.99
2022-07-26T03:38:33.816Z,99.99
2022-07-26T03:39:33.978Z,99.99
2022-07-26T03:40:33.876Z,99.99
2022-07-26T03:41:33.746Z,99.99
2022-07-26T03:42:33.809Z,99.99
2022-07-26T03:43:36.343Z,99.99
2022-07-26T03:44:33.823Z,99.99
2022-07-26T03:45:33.704Z,99.99
2022-07-26T03:46:33.975Z,99.99
2022-07-26T03:47:33.691Z,99.99
2022-07-26T03:48:33.897Z,99.99
2022-07-26T03:49:33.651Z,99.99
2022-07-26T03:50:33.837Z,99.99
2022-07-26T03:51:33.641Z,99.99
2022-07-26T03:52:33.872Z,99.99
2022-07-26T03:53:33.658Z,99.99
2022-07-26T03:54:33.816Z,99.99
2022-07-26T03:55:33.666Z,99.99
2022-07-26T03:56:33.816Z,99.99
2022-07-26T03:57:33.635Z,99.99
2022-07-26T03:58:33.840Z,99.99
2022-07-26T03:59:33.643Z,99.99
2022-07-26T04:00:33.518Z,99.99
2022-07-26T04:01:33.557Z,99.99
2022-07-26T04:02:33.561Z,99.99
2022-07-26T04:03:33.747Z,99.99
2022-07-26T04:04:33.521Z,99.99
2022-07-26T04:05:33.662Z,99.99
2022-07-26T04:06:33.518Z,99.99
2022-07-26T04:07:33.676Z,99.99
2022-07-26T04:08:33.522Z,99.99
2022-07-26T04:09:33.391Z,99.99
2022-07-26T04:10:33.497Z,99.99
2022-07-26T04:11:33.411Z,99.99
2022-07-26T04:12:33.513Z,99.99
2022-07-26T04:13:33.348Z,99.99
2022-07-26T04:14:33.507Z,99.99
2022-07-26T04:15:33.346Z,99.99
2022-07-26T04:16:33.383Z,99.99
2022-07-26T04:17:33.327Z,99.99
2022-07-26T04:18:33.267Z,99.99
2022-07-26T04:19:33.266Z,99.99
2022-07-26T04:20:33.307Z,99.99
2022-07-26T04:21:33.239Z,99.99
2022-07-26T04:22:33.511Z,99.99
2022-07-26T04:23:33.331Z,99.99
2022-07-26T04:24:33.189Z,99.99
2022-07-26T04:25:40.767Z,99.99
2022-07-26T04:26:33.191Z,99.99
2022-07-26T04:27:33.144Z,99.99
2022-07-26T04:28:33.191Z,99.99
2022-07-26T04:29:33.111Z,99.99
2022-07-26T04:30:33.240Z,99.99
2022-07-26T04:31:36.182Z,99.99
2022-07-26T04:32:33.176Z,99.99
2022-07-26T04:33:33.055Z,99.99
2022-07-26T04:34:33.189Z,99.99
2022-07-26T04:35:33.056Z,99.99
2022-07-26T04:36:33.018Z,99.99
2022-07-26T04:37:33.356Z,99.99
2022-07-26T04:38:33.173Z,99.99
2022-07-26T04:39:33.007Z,99.99
2022-07-26T04:40:33.166Z,99.99
2022-07-26T04:41:33.036Z,99.99
2022-07-26T04:42:33.191Z,99.99
2022-07-26T04:43:33.352Z,99.99
2022-07-26T04:44:32.903Z,99.99
2022-07-26T04:45:33.022Z,99.99
2022-07-26T04:46:32.930Z,99.99
2022-07-26T04:47:33.022Z,99.99
2022-07-26T04:48:32.911Z,99.99
2022-07-26T04:49:33.081Z,99.99
2022-07-26T04:50:32.868Z,99.99
2022-07-26T04:51:33.030Z,99.99
2022-07-26T04:52:32.868Z,99.99
2022-07-26T04:53:32.807Z,99.99
2022-07-26T04:54:32.851Z,99.99
2022-07-26T04:55:33.108Z,99.99
2022-07-26T04:56:32.917Z,99.99
2022-07-26T04:57:32.741Z,99.99
2022-07-26T04:58:32.866Z,99.99
2022-07-26T04:59:32.945Z,99.99
2022-07-26T05:00:34.412Z,99.99
2022-07-26T05:01:32.773Z,99.99
2022-07-26T05:02:33.165Z,99.99
2022-07-26T05:03:32.697Z,99.99
2022-07-26T05:04:32.852Z,99.99
2022-07-26T05:05:32.628Z,99.99
2022-07-26T05:06:32.868Z,99.99
2022-07-26T05:07:32.762Z,99.99
2022-07-26T05:08:32.841Z,99.99
2022-07-26T05:09:32.696Z,99.99
2022-07-26T05:10:32.577Z,99.99
2022-07-26T05:11:32.698Z,99.99
2022-07-26T05:12:32.546Z,99.99
2022-07-26T05:13:32.575Z,99.99
2022-07-26T05:14:32.536Z,99.99
2022-07-26T05:15:35.443Z,99.99
2022-07-26T05:16:32.599Z,99.99
2022-07-26T05:17:32.706Z,99.99
2022-07-26T05:18:46.040Z,99.99
2022-07-26T05:19:32.452Z,99.99
2022-07-26T05:20:32.435Z,99.99
2022-07-26T05:21:32.432Z,99.99
2022-07-26T05:22:32.552Z,99.99
2022-07-26T05:23:32.391Z,99.99
2022-07-26T05:24:32.442Z,99.99
2022-07-26T05:25:32.352Z,99.99
2022-07-26T05:26:32.345Z,99.99
2022-07-26T05:27:32.363Z,99.99
2022-07-26T05:28:32.326Z,99.99
2022-07-26T05:29:32.389Z,99.99
2022-07-26T05:30:32.765Z,99.99
2022-07-26T05:31:32.286Z,99.99
2022-07-26T05:32:32.266Z,99.99
2022-07-26T05:33:32.366Z,99.99
2022-07-26T05:34:32.261Z,99.99
2022-07-26T05:35:32.448Z,99.99
2022-07-26T05:36:32.237Z,99.99
2022-07-26T05:37:32.196Z,99.99
2022-07-26T05:38:32.212Z,99.99
2022-07-26T05:39:32.380Z,99.99
2022-07-26T05:40:32.212Z,99.99
2022-07-26T05:41:32.212Z,99.99
2022-07-26T05:42:32.223Z,99.99
2022-07-26T05:43:41.349Z,99.99
2022-07-26T05:44:32.211Z,99.99
2022-07-26T05:45:32.190Z,99.99
2022-07-26T05:46:32.353Z,99.99
2022-07-26T05:47:32.072Z,99.99
2022-07-26T05:48:32.097Z,99.99
2022-07-26T05:49:40.357Z,99.99
2022-07-26T05:50:32.036Z,99.99
2022-07-26T05:51:32.016Z,99.99
2022-07-26T05:52:32.057Z,99.99
2022-07-26T05:53:32.055Z,99.99
2022-07-26T05:54:32.206Z,99.99
2022-07-26T05:55:32.051Z,99.99
2022-07-26T05:56:31.941Z,99.99
2022-07-26T05:57:32.066Z,99.99
2022-07-26T05:58:31.973Z,99.99
2022-07-26T05:59:32.067Z,99.99
2022-07-26T06:00:31.902Z,99.93
2022-07-26T06:01:32.042Z,99.83
2022-07-26T06:02:31.973Z,99.13
2022-07-26T06:03:32.048Z,99.22
2022-07-26T06:04:32.038Z,98.72
2022-07-26T06:05:31.822Z,98.82
2022-07-26T06:06:31.901Z,98.68
2022-07-26T06:07:32.045Z,98.78
2022-07-26T06:08:31.897Z,99.18
2022-07-26T06:09:32.147Z,98.48
2022-07-26T06:10:31.800Z,98.48
2022-07-26T06:11:31.749Z,99.28
2022-07-26T06:12:31.876Z,99.28
2022-07-26T06:13:31.726Z,99.58
2022-07-26T06:14:31.747Z,99.48
2022-07-26T06:15:31.742Z,99.18
2022-07-26T06:16:31.914Z,99.28
2022-07-26T06:17:31.703Z,99.99
2022-07-26T06:18:31.653Z,99.99
2022-07-26T06:19:31.641Z,99.99
2022-07-26T06:20:31.702Z,99.99
2022-07-26T06:21:31.612Z,99.99
2022-07-26T06:22:31.592Z,99.99
2022-07-26T06:23:34.763Z,99.99
2022-07-26T06:24:31.561Z,99.99
2022-07-26T06:25:31.737Z,99.99
2022-07-26T06:26:31.618Z,99.58
2022-07-26T06:27:31.736Z,99.78
2022-07-26T06:28:31.533Z,98.78
2022-07-26T06:29:32.382Z,98.38
2022-07-26T06:30:31.499Z,98.88
2022-07-26T06:31:31.512Z,98.53
2022-07-26T06:32:31.627Z,97.73
2022-07-26T06:33:31.477Z,97.63
2022-07-26T06:34:31.438Z,98.23
2022-07-26T06:35:31.432Z,98.63
2022-07-26T06:36:31.607Z,98.43
2022-07-26T06:37:31.420Z,97.63
2022-07-26T06:38:31.630Z,98.13
2022-07-26T06:39:31.372Z,99.13
2022-07-26T06:40:31.351Z,98.83
2022-07-26T06:41:31.412Z,98.73
2022-07-26T06:42:31.332Z,98.43
2022-07-26T06:43:31.411Z,97.73
2022-07-26T06:44:31.398Z,98.13
2022-07-26T06:45:31.623Z,96.93
2022-07-26T06:46:31.397Z,97.33
2022-07-26T06:47:31.267Z,97.33
2022-07-26T06:48:31.290Z,97.73
2022-07-26T06:49:31.303Z,98.93
2022-07-26T06:50:31.338Z,99.43
2022-07-26T06:51:31.486Z,99.43
2022-07-26T06:52:31.257Z,98.83
2022-07-26T06:53:31.202Z,97.83
2022-07-26T06:54:31.262Z,97.83
2022-07-26T06:55:31.405Z,99.03
2022-07-26T06:56:31.251Z,99.99
2022-07-26T06:57:31.512Z,99.63
2022-07-26T06:58:31.253Z,99.63
2022-07-26T06:59:31.108Z,99.58
2022-07-26T07:00:31.245Z,99.79
2022-07-26T07:01:59.305Z,99.99
2022-07-26T07:02:31.261Z,99.18
2022-07-26T07:03:31.177Z,98.68
2022-07-26T07:04:31.351Z,98.58
2022-07-26T07:05:31.252Z,98.28
2022-07-26T07:06:31.007Z,96.78
2022-07-26T07:07:31.090Z,97.68
2022-07-26T07:08:31.267Z,98.08
2022-07-26T07:09:31.158Z,98.79
2022-07-26T07:10:30.965Z,98.79
2022-07-26T07:11:31.087Z,97.58
2022-07-26T07:12:30.951Z,97.28
2022-07-26T07:13:30.923Z,97.84
2022-07-26T07:14:30.952Z,97.53
2022-07-26T07:15:31.176Z,97.34
2022-07-26T07:16:30.982Z,98.14
2022-07-26T07:17:31.076Z,97.99
2022-07-26T07:18:30.841Z,95.59
2022-07-26T07:19:30.833Z,94.29
2022-07-26T07:20:30.822Z,95.39
2022-07-26T07:21:30.897Z,94.99
2022-07-26T07:22:30.998Z,96.19
2022-07-26T07:23:30.787Z,96.49
2022-07-26T07:24:30.776Z,95.99
2022-07-26T07:25:31.176Z,95.29
2022-07-26T07:26:30.738Z,95.79
2022-07-26T07:27:30.740Z,96.09
2022-07-26T07:28:30.767Z,95.89
2022-07-26T07:29:30.775Z,95.99
2022-07-26T07:30:30.676Z,96.19
2022-07-26T07:31:48.029Z,95.39
2022-07-26T07:32:30.829Z,95.04
2022-07-26T07:33:36.570Z,95.34
2022-07-26T07:34:31.000Z,94.40
2022-07-26T07:35:31.982Z,92.10
2022-07-26T07:36:30.599Z,92.10
2022-07-26T07:37:53.133Z,92.30
2022-07-26T07:38:30.590Z,93.00
2022-07-26T07:39:34.851Z,92.40
2022-07-26T07:40:30.737Z,91.75
2022-07-26T07:41:30.775Z,93.44
2022-07-26T07:42:30.626Z,94.45
2022-07-26T07:43:30.787Z,94.24
2022-07-26T07:44:30.626Z,94.65
2022-07-26T07:45:30.497Z,94.79
2022-07-26T07:46:30.737Z,93.79
2022-07-26T07:47:30.495Z,93.59
2022-07-26T07:48:30.501Z,94.43
2022-07-26T07:49:30.576Z,94.39
2022-07-26T07:50:30.642Z,94.49
2022-07-26T07:51:30.451Z,95.54
2022-07-26T07:52:30.952Z,95.34
2022-07-26T07:53:30.590Z,95.50
2022-07-26T07:54:30.603Z,94.60
2022-07-26T07:55:41.070Z,94.45
2022-07-26T07:56:30.601Z,93.01
2022-07-26T07:57:30.442Z,91.91
2022-07-26T07:58:30.437Z,91.11
2022-07-26T07:59:30.515Z,90.52
2022-07-26T08:00:30.326Z,90.17
2022-07-26T08:01:39.526Z,89.29
2022-07-26T08:02:30.298Z,90.05
2022-07-26T08:03:38.929Z,88.57
2022-07-26T08:04:30.427Z,84.84
2022-07-26T08:05:30.457Z,84.33
2022-07-26T08:06:30.287Z,81.23
2022-07-26T08:07:32.869Z,81.38
2022-07-26T08:08:30.301Z,79.60
2022-07-26T08:09:30.191Z,79.74
2022-07-26T08:10:30.393Z,80.54
2022-07-26T08:11:30.205Z,80.18
2022-07-26T08:12:30.291Z,80.81
2022-07-26T08:13:30.130Z,83.37
2022-07-26T08:14:30.113Z,82.65
2022-07-26T08:15:30.131Z,85.04
2022-07-26T08:16:30.465Z,83.65
2022-07-26T08:17:30.135Z,82.81
2022-07-26T08:18:30.305Z,81.84
2022-07-26T08:19:41.629Z,82.06
2022-07-26T08:20:30.046Z,80.87
2022-07-26T08:21:30.125Z,80.49
2022-07-26T08:22:30.366Z,79.30
2022-07-26T08:23:30.136Z,79.70
2022-07-26T08:24:29.976Z,80.00
2022-07-26T08:25:29.977Z,78.85
2022-07-26T08:26:29.961Z,79.50
2022-07-26T08:27:29.951Z,78.81
2022-07-26T08:28:46.666Z,80.00
2022-07-26T08:29:30.142Z,78.57
2022-07-26T08:30:29.913Z,76.87
2022-07-26T08:31:30.283Z,78.16
2022-07-26T08:32:29.871Z,76.16
2022-07-26T08:33:29.861Z,76.99
2022-07-26T08:34:29.950Z,78.51
2022-07-26T08:35:29.839Z,78.88
2022-07-26T08:36:32.723Z,79.60
2022-07-26T08:37:29.918Z,81.23
2022-07-26T08:38:29.796Z,82.86
2022-07-26T08:39:29.812Z,82.70
2022-07-26T08:40:29.846Z,84.48
2022-07-26T08:41:29.810Z,84.09
2022-07-26T08:42:29.737Z,83.63
2022-07-26T08:43:29.830Z,84.92
2022-07-26T08:44:29.984Z,84.78
2022-07-26T08:45:29.829Z,84.29
2022-07-26T08:46:29.787Z,84.94
2022-07-26T08:47:37.949Z,85.14
2022-07-26T08:48:29.740Z,85.14
2022-07-26T08:49:29.854Z,83.71
2022-07-26T08:50:29.639Z,83.21
2022-07-26T08:51:29.820Z,83.17
2022-07-26T08:52:29.746Z,81.58
2022-07-26T08:53:29.606Z,82.04
2022-07-26T08:54:29.664Z,82.20
2022-07-26T08:55:50.298Z,79.91
2022-07-26T08:56:29.656Z,80.51
2022-07-26T08:57:29.546Z,79.38
2022-07-26T08:58:29.725Z,79.84
2022-07-26T08:59:29.515Z,79.11
2022-07-26T09:00:29.813Z,77.92
2022-07-26T09:01:29.833Z,76.23
2022-07-26T09:02:29.666Z,77.52
2022-07-26T09:03:29.559Z,76.82
2022-07-26T09:04:32.116Z,74.41
2022-07-26T09:05:29.481Z,78.11
2022-07-26T09:06:29.652Z,75.99
2022-07-26T09:07:29.492Z,75.70
2022-07-26T09:08:29.631Z,76.89
2022-07-26T09:09:29.501Z,73.51
2022-07-26T09:10:29.725Z,74.16
2022-07-26T09:11:29.485Z,70.24
2022-07-26T09:12:29.385Z,70.44
2022-07-26T09:13:29.356Z,69.35
2022-07-26T09:14:29.336Z,68.53
2022-07-26T09:15:29.325Z,68.27
2022-07-26T09:16:29.586Z,68.96
2022-07-26T09:17:29.286Z,64.56
2022-07-26T09:18:29.360Z,63.48
2022-07-26T09:19:29.502Z,62.76
2022-07-26T09:20:29.352Z,63.49
2022-07-26T09:21:29.511Z,63.55
2022-07-26T09:22:29.411Z,65.58
2022-07-26T09:23:29.241Z,65.06
2022-07-26T09:24:29.332Z,63.42
2022-07-26T09:25:29.201Z,62.07
2022-07-26T09:26:29.182Z,64.62
2022-07-26T09:27:29.187Z,65.22
2022-07-26T09:28:29.236Z,66.30
2022-07-26T09:29:29.207Z,69.82
2022-07-26T09:30:29.346Z,69.52
2022-07-26T09:31:29.244Z,71.60
2022-07-26T09:32:29.106Z,74.35
2022-07-26T09:33:29.076Z,75.48
2022-07-26T09:34:29.125Z,74.82
2022-07-26T09:35:51.277Z,75.84
2022-07-26T09:36:29.071Z,75.55
2022-07-26T09:37:29.181Z,76.38
2022-07-26T09:38:29.032Z,77.14
2022-07-26T09:39:33.619Z,78.03
2022-07-26T09:40:29.081Z,77.47
2022-07-26T09:41:28.992Z,76.48
2022-07-26T09:42:29.823Z,76.78
2022-07-26T09:43:29.423Z,76.38
2022-07-26T09:44:28.956Z,78.17
2022-07-26T09:45:28.935Z,79.26
2022-07-26T09:46:29.164Z,79.06
2022-07-26T09:47:28.915Z,78.66
2022-07-26T09:48:36.605Z,76.68
2022-07-26T09:49:40.298Z,78.30
2022-07-26T09:50:29.105Z,77.11
2022-07-26T09:51:28.856Z,77.94
2022-07-26T09:52:29.067Z,77.25
2022-07-26T09:53:28.862Z,80.13
2022-07-26T09:54:29.021Z,79.37
2022-07-26T09:55:35.054Z,78.67
2022-07-26T09:56:28.810Z,79.27
2022-07-26T09:57:28.851Z,81.26
2022-07-26T09:58:28.812Z,80.71
2022-07-26T09:59:28.852Z,81.20
2022-07-26T10:00:28.752Z,81.60
2022-07-26T10:01:29.060Z,81.60
2022-07-26T10:02:28.758Z,79.35
2022-07-26T10:03:28.706Z,80.05
2022-07-26T10:04:28.775Z,81.10
2022-07-26T10:05:28.857Z,80.41
2022-07-26T10:06:30.626Z,80.80
2022-07-26T10:07:28.846Z,82.29
2022-07-26T10:08:28.708Z,83.19
2022-07-26T10:09:28.856Z,83.09
2022-07-26T10:10:28.761Z,83.89
2022-07-26T10:11:28.873Z,84.63
2022-07-26T10:12:30.670Z,83.63
2022-07-26T10:13:28.860Z,84.43
2022-07-26T10:14:28.701Z,83.77
2022-07-26T10:15:28.551Z,83.87
2022-07-26T10:16:28.825Z,83.87
2022-07-26T10:17:31.036Z,83.77
2022-07-26T10:18:28.511Z,84.67
2022-07-26T10:19:28.555Z,85.80
2022-07-26T10:20:28.475Z,86.40
2022-07-26T10:21:28.534Z,84.51
2022-07-26T10:22:28.755Z,85.30
2022-07-26T10:23:28.525Z,84.91
2022-07-26T10:24:28.425Z,85.57
2022-07-26T10:25:28.535Z,83.73
2022-07-26T10:26:28.414Z,84.69
2022-07-26T10:27:28.526Z,84.39
2022-07-26T10:28:28.469Z,84.15
2022-07-26T10:29:28.554Z,83.01
2022-07-26T10:30:34.305Z,83.47
2022-07-26T10:31:28.630Z,80.88
2022-07-26T10:32:28.333Z,81.48
2022-07-26T10:33:28.519Z,82.18
2022-07-26T10:34:28.351Z,82.68
2022-07-26T10:35:28.520Z,81.48
2022-07-26T10:36:28.240Z,80.99
2022-07-26T10:37:28.284Z,81.58
2022-07-26T10:38:28.245Z,80.94
2022-07-26T10:39:28.276Z,80.75
2022-07-26T10:40:28.264Z,81.40
2022-07-26T10:41:28.285Z,79.12
2022-07-26T10:42:28.194Z,78.72
2022-07-26T10:43:43.718Z,80.02
2022-07-26T10:44:28.156Z,79.91
2022-07-26T10:45:28.225Z,79.52
2022-07-26T10:46:28.444Z,79.72
2022-07-26T10:47:33.380Z,80.57
2022-07-26T10:48:28.157Z,78.25
2022-07-26T10:49:28.090Z,77.31
2022-07-26T10:50:28.070Z,74.77
2022-07-26T10:51:28.079Z,75.73
2022-07-26T10:52:28.122Z,72.72
2022-07-26T10:53:28.038Z,70.50
2022-07-26T10:54:28.046Z,69.02
2022-07-26T10:55:28.047Z,66.99
2022-07-26T10:56:32.878Z,64.59
2022-07-26T10:57:27.984Z,63.81
2022-07-26T10:58:28.144Z,65.25
2022-07-26T10:59:53.272Z,66.04
2022-07-26T11:00:28.055Z,60.39
2022-07-26T11:01:28.019Z,60.71
2022-07-26T11:03:05.406Z,61.91
2022-07-26T11:03:27.969Z,62.82
2022-07-26T11:04:28.107Z,62.50
2022-07-26T11:05:27.888Z,63.45
2022-07-26T11:06:27.877Z,63.60
2022-07-26T11:07:27.902Z,63.60
2022-07-26T11:08:28.063Z,65.50
2022-07-26T11:09:27.901Z,66.23
2022-07-26T11:10:27.882Z,65.54
2022-07-26T11:11:27.872Z,65.86
2022-07-26T11:12:28.032Z,67.15
2022-07-26T11:13:27.893Z,65.50
2022-07-26T11:14:27.775Z,66.49
2022-07-26T11:15:27.887Z,66.85
2022-07-26T11:16:27.876Z,67.94
2022-07-26T11:17:27.887Z,67.64
2022-07-26T11:18:27.736Z,69.32
2022-07-26T11:19:27.876Z,68.66
2022-07-26T11:20:30.064Z,68.80
2022-07-26T11:21:27.897Z,68.76
2022-07-26T11:22:27.786Z,71.34
2022-07-26T11:23:27.879Z,70.15
2022-07-26T11:24:27.729Z,69.72
2022-07-26T11:25:27.630Z,68.04
2022-07-26T11:26:27.712Z,67.87
2022-07-26T11:27:27.893Z,68.57
2022-07-26T11:28:27.806Z,70.81
2022-07-26T11:29:38.188Z,70.54
2022-07-26T11:30:27.722Z,68.27
2022-07-26T11:31:49.671Z,69.46
2022-07-26T11:32:27.785Z,67.61
2022-07-26T11:33:27.570Z,69.72
2022-07-26T11:34:27.796Z,69.62
2022-07-26T11:35:29.953Z,69.02
2022-07-26T11:36:27.728Z,68.83
2022-07-26T11:37:27.482Z,70.25
2022-07-26T11:38:27.728Z,70.58
2022-07-26T11:39:27.568Z,72.66
2022-07-26T11:40:27.417Z,72.17
2022-07-26T11:41:34.933Z,71.37
2022-07-26T11:42:27.423Z,71.73
2022-07-26T11:43:27.412Z,71.64
2022-07-26T11:44:27.402Z,70.71
2022-07-26T11:45:27.423Z,70.48
2022-07-26T11:46:27.470Z,70.54
2022-07-26T11:47:27.638Z,70.05
2022-07-26T11:48:27.419Z,67.87
2022-07-26T11:49:51.702Z,68.76
2022-07-26T11:50:27.610Z,68.96
2022-07-26T11:51:27.298Z,70.34
2022-07-26T11:52:27.366Z,69.85
2022-07-26T11:53:27.288Z,70.34
2022-07-26T11:54:27.261Z,70.38
2022-07-26T11:55:27.248Z,70.97
2022-07-26T11:56:27.218Z,69.98
2022-07-26T11:57:27.213Z,69.39
2022-07-26T11:58:27.280Z,70.42
2022-07-26T11:59:27.263Z,70.05
2022-07-26T12:00:27.202Z,69.89
2022-07-26T12:01:27.162Z,71.31
2022-07-26T12:02:27.153Z,73.72
2022-07-26T12:03:27.321Z,73.76
2022-07-26T12:04:27.363Z,75.45
2022-07-26T12:05:27.393Z,73.60
2022-07-26T12:06:27.091Z,75.02
2022-07-26T12:07:27.077Z,76.91
2022-07-26T12:08:27.097Z,80.13
2022-07-26T12:09:27.178Z,82.65
2022-07-26T12:10:27.091Z,84.23
2022-07-26T12:11:27.249Z,86.00
2022-07-26T12:12:27.102Z,87.74
2022-07-26T12:13:27.248Z,90.32
2022-07-26T12:14:27.091Z,91.36
2022-07-26T12:15:27.372Z,92.00
2022-07-26T12:16:27.202Z,92.20
2022-07-26T12:17:26.986Z,93.00
2022-07-26T12:18:27.093Z,94.20
2022-07-26T12:19:26.953Z,94.85
2022-07-26T12:20:27.093Z,95.25
2022-07-26T12:21:26.994Z,95.75
2022-07-26T12:22:27.086Z,96.15
2022-07-26T12:23:26.913Z,95.06
2022-07-26T12:24:27.094Z,95.65
2022-07-26T12:25:26.927Z,95.95
2022-07-26T12:26:27.105Z,96.55
2022-07-26T12:27:26.998Z,97.50
2022-07-26T12:28:26.838Z,96.75
2022-07-26T12:29:26.918Z,97.55
2022-07-26T12:30:30.998Z,97.59
2022-07-26T12:31:27.140Z,98.39
2022-07-26T12:32:26.767Z,97.84
2022-07-26T12:33:26.888Z,98.03
2022-07-26T12:34:26.721Z,96.18
2022-07-26T12:35:26.711Z,96.73
2022-07-26T12:36:28.155Z,97.13
2022-07-26T12:37:37.669Z,97.58
2022-07-26T12:38:26.773Z,98.18
2022-07-26T12:39:26.734Z,97.97
2022-07-26T12:40:26.774Z,98.58
2022-07-26T12:41:26.616Z,98.43
2022-07-26T12:42:33.486Z,98.22
2022-07-26T12:43:26.628Z,97.52
2022-07-26T12:44:26.847Z,95.92
2022-07-26T12:45:26.600Z,98.22
2022-07-26T12:46:26.868Z,98.32
2022-07-26T12:47:26.629Z,98.63
2022-07-26T12:48:26.768Z,98.13
2022-07-26T12:49:26.571Z,97.52
2022-07-26T12:50:26.567Z,97.88
2022-07-26T12:51:26.616Z,97.28
2022-07-26T12:52:26.997Z,97.53